Map

Track Data

SID SEASON NUMBER BASIN SUBBASIN NAME ISO_TIME NATURE LAT LON WMO_WIND WMO_PRES WMO_AGENCY TRACK_TYPE DIST2LAND LANDFALL IFLAG USA_AGENCY USA_ATCF_ID USA_LAT USA_LON USA_RECORD USA_STATUS USA_WIND USA_PRES USA_SSHS USA_R34_NE USA_R34_SE USA_R34_SW USA_R34_NW USA_R50_NE USA_R50_SE USA_R50_SW USA_R50_NW USA_R64_NE USA_R64_SE USA_R64_SW USA_R64_NW USA_POCI USA_ROCI USA_RMW USA_EYE TOKYO_LAT TOKYO_LON TOKYO_GRADE TOKYO_WIND TOKYO_PRES TOKYO_R50_DIR TOKYO_R50_LONG TOKYO_R50_SHORT TOKYO_R30_DIR TOKYO_R30_LONG TOKYO_R30_SHORT TOKYO_LAND CMA_LAT CMA_LON CMA_CAT CMA_WIND CMA_PRES HKO_LAT HKO_LON HKO_CAT HKO_WIND HKO_PRES NEWDELHI_LAT NEWDELHI_LON NEWDELHI_GRADE NEWDELHI_WIND NEWDELHI_PRES NEWDELHI_CI NEWDELHI_DP NEWDELHI_POCI REUNION_LAT REUNION_LON REUNION_TYPE REUNION_WIND REUNION_PRES REUNION_TNUM REUNION_CI REUNION_RMW REUNION_R34_NE REUNION_R34_SE REUNION_R34_SW REUNION_R34_NW REUNION_R50_NE REUNION_R50_SE REUNION_R50_SW REUNION_R50_NW REUNION_R64_NE REUNION_R64_SE REUNION_R64_SW REUNION_R64_NW BOM_LAT BOM_LON BOM_TYPE BOM_WIND BOM_PRES BOM_TNUM BOM_CI BOM_RMW BOM_R34_NE BOM_R34_SE BOM_R34_SW BOM_R34_NW BOM_R50_NE BOM_R50_SE BOM_R50_SW BOM_R50_NW BOM_R64_NE BOM_R64_SE BOM_R64_SW BOM_R64_NW BOM_ROCI BOM_POCI BOM_EYE BOM_POS_METHOD BOM_PRES_METHOD NADI_LAT NADI_LON NADI_CAT NADI_WIND NADI_PRES WELLINGTON_LAT WELLINGTON_LON WELLINGTON_WIND WELLINGTON_PRES DS824_LAT DS824_LON DS824_STAGE DS824_WIND DS824_PRES TD9636_LAT TD9636_LON TD9636_STAGE TD9636_WIND TD9636_PRES TD9635_LAT TD9635_LON TD9635_WIND TD9635_PRES TD9635_ROCI NEUMANN_LAT NEUMANN_LON NEUMANN_CLASS NEUMANN_WIND NEUMANN_PRES MLC_LAT MLC_LON MLC_CLASS MLC_WIND MLC_PRES USA_GUST BOM_GUST BOM_GUST_PER REUNION_GUST REUNION_GUST_PER USA_SEAHGT USA_SEARAD_NE USA_SEARAD_SE USA_SEARAD_SW USA_SEARAD_NW STORM_SPEED STORM_DIR
1966341N08088 1966 116 NI BB NOT_NAMED 1966-12-07 06:00:00 TS 8.00000 87.9000 main 671 660 O________O____ jtwc_io IO171966 8.00000 87.9000 -1 8.00000 87.9000 TC 2 278
1966341N08088 1966 116 NI BB NOT_NAMED 1966-12-07 09:00:00 TS 8.01501 87.7950 main 660 649 P________P____ IO171966 8.01501 87.7950 -1 8.01501 87.7950 TC 2 297
1966341N08088 1966 116 NI BB NOT_NAMED 1966-12-07 12:00:00 TS 8.10000 87.7000 main 651 642 O________O____ jtwc_io IO171966 8.10000 87.7000 -1 8.10000 87.7000 TC 25 3 328
1966341N08088 1966 116 NI BB NOT_NAMED 1966-12-07 15:00:00 TS 8.30443 87.6133 main 644 636 P________PO___ IO171966 8.30499 87.6150 -1 8.30499 87.6150 TC 25 8.30000 87.6000 1 6 339
1966341N08088 1966 116 NI BB NOT_NAMED 1966-12-07 18:00:00 TS 8.61435 87.4944 main 637 623 O________OP___ jtwc_io IO171966 8.60000 87.5000 -1 8.60000 87.5000 TC 25 8.67175 87.4721 1 7 337
1966341N08088 1966 116 NI BB NOT_NAMED 1966-12-07 21:00:00 TS 8.97858 87.3233 main 625 613 P________PP___ IO171966 8.96500 87.3226 -1 8.96500 87.3226 TC 25 9.01480 87.3253 1 8 331
1966341N08088 1966 116 NI BB NOT_NAMED 1966-12-08 00:00:00 TS 9.30015 87.1136 main 613 600 O________OP___ jtwc_io IO171966 9.30000 87.1000 -1 9.30000 87.1000 TC 25 9.30046 87.1409 1 7 320
1966341N08088 1966 116 NI BB NOT_NAMED 1966-12-08 03:00:00 TS 9.50164 86.8817 main 600 573 P________PO___ IO171966 9.50246 86.8725 -1 9.50246 86.8725 TC 25 9.50000 86.9000 1 6 300
1966341N08088 1966 116 NI BB NOT_NAMED 1966-12-08 06:00:00 TS 9.59924 86.5984 main 573 543 O________OP___ jtwc_io IO171966 9.60000 86.6000 -1 9.60000 86.6000 TC 25 9.59773 86.5951 1 6 280
1966341N08088 1966 116 NI BB NOT_NAMED 1966-12-08 09:00:00 TS 9.61516 86.2440 main 533 503 P________PP___ IO171966 9.60758 86.2349 -1 9.60758 86.2349 TC 25 9.63033 86.2622 1 7 271
1966341N08088 1966 116 NI BB NOT_NAMED 1966-12-08 12:00:00 TS 9.61591 85.9161 main 503 489 O________OP___ jtwc_io IO171966 9.60000 85.9000 -1 9.60000 85.9000 TC 25 9.64773 85.9482 1 5 277
1966341N08088 1966 116 NI BB NOT_NAMED 1966-12-08 15:00:00 TS 9.67997 85.7033 main 489 479 P________PO___ IO171966 9.66995 85.7050 -1 9.66995 85.7050 TC 25 9.70000 85.7000 1 4 299
1966341N08088 1966 116 NI BB NOT_NAMED 1966-12-08 18:00:00 TS 9.79861 85.5886 main 483 478 O________OP___ jtwc_io IO171966 9.80000 85.6000 -1 9.80000 85.6000 TC 25 9.79582 85.5659 1 3 326
1966341N08088 1966 116 NI BB NOT_NAMED 1966-12-08 21:00:00 TS 9.95079 85.5192 main 483 483 P________PP___ IO171966 9.95499 85.5275 -1 9.95499 85.5275 TC 30 9.94239 85.5025 1 4 348
1966341N08088 1966 116 NI BB NOT_NAMED 1966-12-09 00:00:00 TS 10.1893 85.4959 main 493 493 O________OP___ jtwc_io IO171966 10.2000 85.5000 -1 10.2000 85.5000 TC 35 10.1678 85.4878 1 6 356
1966341N08088 1966 116 NI BB NOT_NAMED 1966-12-09 03:00:00 TS 10.5217 85.4900 main 507 507 P________PO___ IO171966 10.5325 85.4850 -1 10.5325 85.4850 TC 35 10.5000 85.5000 2 8 0
1966341N08088 1966 116 NI BB NOT_NAMED 1966-12-09 06:00:00 TS 11.0053 85.4998 main 535 535 O________OP___ jtwc_io IO171966 11.0000 85.5000 -1 11.0000 85.5000 TC 35 11.0159 85.4993 2 11 3
1966341N08088 1966 116 NI BB NOT_NAMED 1966-12-09 09:00:00 TS 11.6425 85.5399 main 572 572 P________PP___ IO171966 11.6500 85.5499 -1 11.6500 85.5499 TC 35 11.6275 85.5199 2 13 4
1966341N08088 1966 116 NI BB NOT_NAMED 1966-12-09 12:00:00 TS 12.2835 85.5852 main 585 562 O________OP___ jtwc_io IO171966 12.3000 85.6000 -1 12.3000 85.6000 TC 35 12.2504 85.5555 2 11 3
1966341N08088 1966 116 NI BB NOT_NAMED 1966-12-09 15:00:00 TS 12.7683 85.6000 main 554 528 P________PO___ IO171966 12.7525 85.6001 -1 12.7525 85.6001 TC 35 12.8000 85.6000 3 8 0
1966341N08088 1966 116 NI BB NOT_NAMED 1966-12-09 18:00:00 TS 13.1231 85.6129 main 528 503 O________OP___ jtwc_io IO171966 13.1000 85.6000 -1 13.1000 85.6000 TC 35 13.1693 85.6388 3 7 5
1966341N08088 1966 116 NI BB NOT_NAMED 1966-12-09 21:00:00 TS 13.4383 85.6517 main 511 488 P________PP___ IO171966 13.4300 85.6350 -1 13.4300 85.6350 TC 35 13.4549 85.6851 3 6 10
1966341N08088 1966 116 NI BB NOT_NAMED 1966-12-10 00:00:00 TS 13.6960 85.7129 main 488 481 O________OP___ jtwc_io IO171966 13.7000 85.7000 -1 13.7000 85.7000 TC 35 13.6881 85.7388 3 5 17
1966341N08088 1966 116 NI BB NOT_NAMED 1966-12-10 03:00:00 TS 13.9050 85.8000 main 482 475 P________PO___ IO171966 13.9075 85.8000 -1 13.9075 85.8000 TC 35 13.9000 85.8000 3 5 22
1966341N08088 1966 116 NI BB NOT_NAMED 1966-12-10 06:00:00 TS 14.1172 85.8906 main 476 463 O________OP___ jtwc_io IO171966 14.1000 85.9000 -1 14.1000 85.9000 TC 35 14.1516 85.8718 3 5 18
1966341N08088 1966 116 NI BB NOT_NAMED 1966-12-10 09:00:00 TS 14.3675 85.9550 main 466 449 P________PP___ IO171966 14.3575 85.9575 -1 14.3575 85.9575 TC 35 14.3875 85.9500 3 5 13
1966341N08088 1966 116 NI BB NOT_NAMED 1966-12-10 12:00:00 TS 14.6016 86.0094 main 449 440 O________OP___ jtwc_io IO171966 14.6000 86.0000 -1 14.6000 86.0000 TC 35 14.6047 86.0281 3 4 15
1966341N08088 1966 116 NI BB NOT_NAMED 1966-12-10 15:00:00 TS 14.7817 86.0667 main 440 432 P________PO___ IO171966 14.7725 86.0500 -1 14.7725 86.0500 TC 35 14.8000 86.1000 3 3 17
1966341N08088 1966 116 NI BB NOT_NAMED 1966-12-10 18:00:00 TS 14.9021 86.1031 main 432 424 O________OP___ jtwc_io IO171966 14.9000 86.1000 -1 14.9000 86.1000 TC 35 14.9064 86.1093 3 2 16
1966341N08088 1966 116 NI BB NOT_NAMED 1966-12-10 21:00:00 TS 14.9757 86.1297 main 424 422 P________PP___ IO171966 14.9625 86.1351 -1 14.9625 86.1351 TC 35 15.0022 86.1190 3 2 20
1966341N08088 1966 116 NI BB NOT_NAMED 1966-12-11 00:00:00 TS 15.1156 86.1897 main 422 400 O________OP___ jtwc_io IO171966 15.1000 86.2000 -1 15.1000 86.2000 TC 35 15.1469 86.1691 3 5 20
1966341N08088 1966 116 NI BB NOT_NAMED 1966-12-11 03:00:00 TS 15.4216 86.2985 main 400 370 P________PO___ IO171966 15.4324 86.2978 -1 15.4324 86.2978 TC 35 15.4000 86.3000 3 8 22
1966341N08088 1966 116 NI BB NOT_NAMED 1966-12-11 06:00:00 TS 15.8811 86.5183 main 370 354 O________OP___ jtwc_io IO171966 15.9000 86.5000 -1 15.9000 86.5000 TC 35 15.8434 86.5549 3 11 29
1966341N08088 1966 116 NI BB NOT_NAMED 1966-12-11 09:00:00 TS 16.4168 86.8729 main 361 346 P________PP___ IO171966 16.4276 86.8624 -1 16.4276 86.8624 TC 35 16.3953 86.8941 3 14 34
1966341N08088 1966 116 NI BB NOT_NAMED 1966-12-11 12:00:00 TS 16.9999 87.2954 main 348 306 O________OP___ jtwc_io IO171966 17.0000 87.3000 -1 17.0000 87.3000 TC 35 16.9996 87.2864 3 14 34
1966341N08088 1966 116 NI BB NOT_NAMED 1966-12-11 15:00:00 TS 17.5716 87.7001 main 301 277 P________PO___ IO171966 17.5574 87.7002 -1 17.5574 87.7002 TC 35 17.6000 87.7000 3 14 35
1966341N08088 1966 116 NI BB NOT_NAMED 1966-12-11 18:00:00 TS 18.1089 88.0993 main 277 267 O________OP___ jtwc_io IO171966 18.1000 88.1000 -1 18.1000 88.1000 TC 35 18.1266 88.0979 3 13 36
1966341N08088 1966 116 NI BB NOT_NAMED 1966-12-11 21:00:00 TS 18.6175 88.5077 main 267 260 P________PP___ IO171966 18.6075 88.5077 -1 18.6075 88.5077 TC 35 18.6376 88.5076 3 13 37
1966341N08088 1966 116 NI BB NOT_NAMED 1966-12-12 00:00:00 TS 19.1099 88.9045 main 266 223 O________OP___ jtwc_io IO171966 19.1000 88.9000 -1 19.1000 88.9000 TC 35 19.1297 88.9135 3 12 36
1966341N08088 1966 116 NI BB NOT_NAMED 1966-12-12 03:00:00 TS 19.6099 89.2718 main 224 175 P________PO___ IO171966 19.6149 89.2577 -1 19.6149 89.2577 TC 35 19.6000 89.3000 3 12 34
1966341N08088 1966 116 NI BB NOT_NAMED 1966-12-12 06:00:00 TS 20.0887 89.6091 main 175 143 O________OP___ jtwc_io IO171966 20.1000 89.6000 -1 20.1000 89.6000 TC 35 20.0661 89.6273 3 11 35
1966341N08088 1966 116 NI BB NOT_NAMED 1966-12-12 09:00:00 TS 20.5129 89.9456 main 143 100 P________PP___ IO171966 20.5149 89.9503 -1 20.5149 89.9503 TC 35 20.5090 89.9364 3 10 38
1966341N08088 1966 116 NI BB NOT_NAMED 1966-12-12 12:00:00 TS 20.9074 90.2841 main 101 69 O________OP___ jtwc_io IO171966 20.9000 90.3000 -1 20.9000 90.3000 TC 35 20.9223 90.2522 3 10 38
1966341N08088 1966 116 NI BB NOT_NAMED 1966-12-12 15:00:00 TS 21.3149 90.6234 main 69 53 P________PO___ IO171966 21.3223 90.6351 -1 21.3223 90.6351 TC 35 21.3000 90.6000 3 10 41
1966341N08088 1966 116 NI BB NOT_NAMED 1966-12-12 18:00:00 TS 21.6753 90.9994 main 53 46 O________OP___ jtwc_io IO171966 21.7000 91.0000 -1 21.7000 91.0000 TC 35 21.6382 90.9986 3 10 49
1966341N08088 1966 116 NI BB NOT_NAMED 1966-12-12 21:00:00 TS 21.9648 91.4345 main 46 0 P________PP___ IO171966 21.9803 91.4298 -1 21.9803 91.4298 TC 35 21.9442 91.4407 3 10 57
1966341N08088 1966 116 NI BB NOT_NAMED 1966-12-13 00:00:00 TS 22.2140 91.9062 main 0 0 O________OP___ jtwc_io IO171966 22.2000 91.9000 -1 22.2000 91.9000 TC 35 22.2280 91.9125 3 10 59
1966341N08088 1966 116 NI BB NOT_NAMED 1966-12-13 03:00:00 NR 22.5000 92.4000 main 0 __________O___ IO171966 -1 TC 22.5000 92.4000 3 11 58

About IBTrACS Database

This database is a web-friendly format of International Best Track Archive for Climate Stewardship (IBTrACS), a global best track data archive curated by NOAA dating back to 1842.

Updated: 2021-10-21